sensor_id;sensor_type;location;lat;lon;timestamp;P1;durP1;ratioP1;P2;durP2;ratioP2
19985;SDS011;10154;52.474;10.768;2022-12-08T00:01:24;51.73;;;19.77;;
19985;SDS011;10154;52.474;10.768;2022-12-08T00:03:52;55.57;;;19.37;;
19985;SDS011;10154;52.474;10.768;2022-12-08T00:09:01;53.13;;;20.27;;
19985;SDS011;10154;52.474;10.768;2022-12-08T00:11:53;53.67;;;20.40;;
19985;SDS011;10154;52.474;10.768;2022-12-08T00:14:24;52.07;;;21.43;;
19985;SDS011;10154;52.474;10.768;2022-12-08T00:16:53;51.83;;;21.27;;
19985;SDS011;10154;52.474;10.768;2022-12-08T00:19:19;60.47;;;20.87;;
19985;SDS011;10154;52.474;10.768;2022-12-08T00:21:45;50.53;;;20.67;;
19985;SDS011;10154;52.474;10.768;2022-12-08T00:24:10;52.97;;;22.77;;
19985;SDS011;10154;52.474;10.768;2022-12-08T00:26:36;50.70;;;20.10;;
19985;SDS011;10154;52.474;10.768;2022-12-08T00:29:02;53.63;;;23.90;;
19985;SDS011;10154;52.474;10.768;2022-12-08T00:31:28;46.90;;;20.63;;
19985;SDS011;10154;52.474;10.768;2022-12-08T00:33:53;49.67;;;22.77;;
19985;SDS011;10154;52.474;10.768;2022-12-08T00:36:18;44.13;;;18.93;;
19985;SDS011;10154;52.474;10.768;2022-12-08T00:38:44;50.17;;;21.60;;
19985;SDS011;10154;52.474;10.768;2022-12-08T00:41:15;44.67;;;20.80;;
19985;SDS011;10154;52.474;10.768;2022-12-08T00:43:41;48.40;;;20.53;;
19985;SDS011;10154;52.474;10.768;2022-12-08T00:46:07;52.17;;;23.53;;
19985;SDS011;10154;52.474;10.768;2022-12-08T00:48:33;47.23;;;19.40;;
19985;SDS011;10154;52.474;10.768;2022-12-08T00:50:58;50.10;;;20.17;;
19985;SDS011;10154;52.474;10.768;2022-12-08T00:53:24;53.47;;;22.07;;
19985;SDS011;10154;52.474;10.768;2022-12-08T00:55:49;51.27;;;23.87;;
19985;SDS011;10154;52.474;10.768;2022-12-08T00:58:14;55.43;;;23.27;;
19985;SDS011;10154;52.474;10.768;2022-12-08T01:00:40;47.83;;;20.23;;
19985;SDS011;10154;52.474;10.768;2022-12-08T01:03:08;51.13;;;20.37;;
19985;SDS011;10154;52.474;10.768;2022-12-08T01:05:34;52.80;;;21.97;;
19985;SDS011;10154;52.474;10.768;2022-12-08T01:08:00;52.77;;;22.70;;
19985;SDS011;10154;52.474;10.768;2022-12-08T01:10:25;51.70;;;23.63;;
19985;SDS011;10154;52.474;10.768;2022-12-08T01:12:50;47.43;;;20.13;;
19985;SDS011;10154;52.474;10.768;2022-12-08T01:15:16;50.47;;;20.87;;
19985;SDS011;10154;52.474;10.768;2022-12-08T01:17:41;36.97;;;17.10;;
19985;SDS011;10154;52.474;10.768;2022-12-08T01:20:06;41.80;;;18.77;;
19985;SDS011;10154;52.474;10.768;2022-12-08T01:22:33;43.80;;;17.73;;
19985;SDS011;10154;52.474;10.768;2022-12-08T01:24:59;41.13;;;17.10;;
19985;SDS011;10154;52.474;10.768;2022-12-08T01:27:24;38.90;;;17.33;;
19985;SDS011;10154;52.474;10.768;2022-12-08T01:29:50;38.23;;;17.90;;
19985;SDS011;10154;52.474;10.768;2022-12-08T01:32:15;47.63;;;20.17;;
19985;SDS011;10154;52.474;10.768;2022-12-08T01:34:40;40.47;;;18.93;;
19985;SDS011;10154;52.474;10.768;2022-12-08T01:37:06;48.87;;;21.27;;
19985;SDS011;10154;52.474;10.768;2022-12-08T01:39:31;47.00;;;20.07;;
19985;SDS011;10154;52.474;10.768;2022-12-08T01:41:57;46.47;;;21.63;;
19985;SDS011;10154;52.474;10.768;2022-12-08T01:46:48;52.67;;;22.40;;
19985;SDS011;10154;52.474;10.768;2022-12-08T01:49:18;48.77;;;20.27;;
19985;SDS011;10154;52.474;10.768;2022-12-08T01:54:25;50.53;;;22.13;;
19985;SDS011;10154;52.474;10.768;2022-12-08T01:59:40;53.00;;;20.97;;
19985;SDS011;10154;52.474;10.768;2022-12-08T02:02:09;50.87;;;21.03;;
19985;SDS011;10154;52.474;10.768;2022-12-08T02:04:35;52.60;;;22.07;;
19985;SDS011;10154;52.474;10.768;2022-12-08T02:07:00;52.87;;;23.90;;
19985;SDS011;10154;52.474;10.768;2022-12-08T02:09:26;52.63;;;23.57;;
19985;SDS011;10154;52.474;10.768;2022-12-08T02:11:52;52.57;;;23.67;;
19985;SDS011;10154;52.474;10.768;2022-12-08T02:14:20;50.07;;;24.33;;
19985;SDS011;10154;52.474;10.768;2022-12-08T02:16:51;52.63;;;24.87;;
19985;SDS011;10154;52.474;10.768;2022-12-08T02:19:33;66.27;;;25.60;;
19985;SDS011;10154;52.474;10.768;2022-12-08T02:22:08;55.73;;;25.63;;
19985;SDS011;10154;52.474;10.768;2022-12-08T02:24:46;61.43;;;23.53;;
19985;SDS011;10154;52.474;10.768;2022-12-08T02:29:51;54.67;;;24.63;;
19985;SDS011;10154;52.474;10.768;2022-12-08T02:32:39;51.73;;;21.93;;
19985;SDS011;10154;52.474;10.768;2022-12-08T02:35:34;52.77;;;23.00;;
19985;SDS011;10154;52.474;10.768;2022-12-08T02:41:03;46.60;;;21.70;;
19985;SDS011;10154;52.474;10.768;2022-12-08T02:43:59;48.03;;;21.17;;
19985;SDS011;10154;52.474;10.768;2022-12-08T02:46:36;47.63;;;21.63;;
19985;SDS011;10154;52.474;10.768;2022-12-08T02:49:04;42.07;;;20.83;;
19985;SDS011;10154;52.474;10.768;2022-12-08T02:51:29;48.50;;;19.10;;
19985;SDS011;10154;52.474;10.768;2022-12-08T02:53:55;39.53;;;19.00;;
19985;SDS011;10154;52.474;10.768;2022-12-08T03:02:27;40.80;;;18.27;;
19985;SDS011;10154;52.474;10.768;2022-12-08T03:08:07;36.83;;;16.30;;
19985;SDS011;10154;52.474;10.768;2022-12-08T03:10:50;40.77;;;17.90;;
19985;SDS011;10154;52.474;10.768;2022-12-08T03:13:19;34.03;;;14.90;;
19985;SDS011;10154;52.474;10.768;2022-12-08T03:15:48;32.70;;;14.40;;
19985;SDS011;10154;52.474;10.768;2022-12-08T03:18:15;27.40;;;13.60;;
19985;SDS011;10154;52.474;10.768;2022-12-08T03:20:42;29.23;;;14.30;;
19985;SDS011;10154;52.474;10.768;2022-12-08T03:23:08;32.07;;;13.67;;
19985;SDS011;10154;52.474;10.768;2022-12-08T03:25:37;28.93;;;14.23;;
19985;SDS011;10154;52.474;10.768;2022-12-08T03:28:08;24.60;;;12.30;;
19985;SDS011;10154;52.474;10.768;2022-12-08T03:30:35;28.57;;;11.07;;
19985;SDS011;10154;52.474;10.768;2022-12-08T03:33:08;28.77;;;12.60;;
19985;SDS011;10154;52.474;10.768;2022-12-08T03:35:38;24.97;;;12.10;;
19985;SDS011;10154;52.474;10.768;2022-12-08T03:38:11;27.00;;;12.10;;
19985;SDS011;10154;52.474;10.768;2022-12-08T03:40:38;28.50;;;11.73;;
19985;SDS011;10154;52.474;10.768;2022-12-08T03:43:04;31.80;;;13.67;;
19985;SDS011;10154;52.474;10.768;2022-12-08T03:45:29;34.97;;;12.47;;
19985;SDS011;10154;52.474;10.768;2022-12-08T03:47:55;28.70;;;13.07;;
19985;SDS011;10154;52.474;10.768;2022-12-08T03:50:21;24.30;;;12.87;;
19985;SDS011;10154;52.474;10.768;2022-12-08T03:52:46;27.37;;;12.80;;
19985;SDS011;10154;52.474;10.768;2022-12-08T03:55:12;27.93;;;12.80;;
19985;SDS011;10154;52.474;10.768;2022-12-08T03:57:37;29.17;;;13.63;;
19985;SDS011;10154;52.474;10.768;2022-12-08T04:00:06;28.90;;;11.87;;
19985;SDS011;10154;52.474;10.768;2022-12-08T04:02:33;29.97;;;11.60;;
19985;SDS011;10154;52.474;10.768;2022-12-08T04:04:58;30.10;;;12.27;;
19985;SDS011;10154;52.474;10.768;2022-12-08T04:07:24;30.83;;;13.10;;
19985;SDS011;10154;52.474;10.768;2022-12-08T04:09:49;28.07;;;12.37;;
19985;SDS011;10154;52.474;10.768;2022-12-08T04:12:15;25.33;;;10.87;;
19985;SDS011;10154;52.474;10.768;2022-12-08T04:14:40;25.67;;;13.10;;
19985;SDS011;10154;52.474;10.768;2022-12-08T04:17:05;23.57;;;11.93;;
19985;SDS011;10154;52.474;10.768;2022-12-08T04:19:31;28.33;;;12.73;;
19985;SDS011;10154;52.474;10.768;2022-12-08T04:21:56;31.03;;;13.23;;
19985;SDS011;10154;52.474;10.768;2022-12-08T04:24:22;27.47;;;11.57;;
19985;SDS011;10154;52.474;10.768;2022-12-08T04:26:47;29.07;;;13.47;;
19985;SDS011;10154;52.474;10.768;2022-12-08T04:29:14;33.50;;;13.50;;
19985;SDS011;10154;52.474;10.768;2022-12-08T04:31:39;28.47;;;14.07;;
19985;SDS011;10154;52.474;10.768;2022-12-08T04:34:05;34.93;;;13.20;;
19985;SDS011;10154;52.474;10.768;2022-12-08T04:36:30;29.33;;;14.27;;
19985;SDS011;10154;52.474;10.768;2022-12-08T04:38:55;28.70;;;13.10;;
19985;SDS011;10154;52.474;10.768;2022-12-08T04:41:21;27.23;;;13.53;;
19985;SDS011;10154;52.474;10.768;2022-12-08T04:43:46;30.07;;;12.77;;
19985;SDS011;10154;52.474;10.768;2022-12-08T04:46:12;24.97;;;12.77;;
19985;SDS011;10154;52.474;10.768;2022-12-08T04:48:38;30.70;;;12.37;;
19985;SDS011;10154;52.474;10.768;2022-12-08T04:51:04;30.43;;;13.13;;
19985;SDS011;10154;52.474;10.768;2022-12-08T04:53:31;29.83;;;13.53;;
19985;SDS011;10154;52.474;10.768;2022-12-08T04:55:56;30.47;;;13.97;;
19985;SDS011;10154;52.474;10.768;2022-12-08T04:58:22;28.07;;;13.80;;
19985;SDS011;10154;52.474;10.768;2022-12-08T05:00:47;24.73;;;12.20;;
19985;SDS011;10154;52.474;10.768;2022-12-08T05:03:13;26.90;;;12.93;;
19985;SDS011;10154;52.474;10.768;2022-12-08T05:05:39;34.80;;;14.30;;
19985;SDS011;10154;52.474;10.768;2022-12-08T05:08:05;28.27;;;13.13;;
19985;SDS011;10154;52.474;10.768;2022-12-08T05:10:31;28.63;;;13.47;;
19985;SDS011;10154;52.474;10.768;2022-12-08T05:12:58;31.00;;;12.60;;
19985;SDS011;10154;52.474;10.768;2022-12-08T05:15:24;26.77;;;12.43;;
19985;SDS011;10154;52.474;10.768;2022-12-08T05:17:49;27.47;;;12.30;;
19985;SDS011;10154;52.474;10.768;2022-12-08T05:20:15;25.80;;;12.63;;
19985;SDS011;10154;52.474;10.768;2022-12-08T05:22:41;32.17;;;13.20;;
19985;SDS011;10154;52.474;10.768;2022-12-08T05:25:06;29.43;;;13.13;;
19985;SDS011;10154;52.474;10.768;2022-12-08T05:27:32;34.43;;;13.70;;
19985;SDS011;10154;52.474;10.768;2022-12-08T05:29:57;30.23;;;13.47;;
19985;SDS011;10154;52.474;10.768;2022-12-08T05:32:23;35.33;;;15.00;;
19985;SDS011;10154;52.474;10.768;2022-12-08T05:34:48;28.17;;;13.43;;
19985;SDS011;10154;52.474;10.768;2022-12-08T05:37:14;33.70;;;12.60;;
19985;SDS011;10154;52.474;10.768;2022-12-08T05:39:39;30.60;;;13.50;;
19985;SDS011;10154;52.474;10.768;2022-12-08T05:42:04;30.60;;;14.50;;
19985;SDS011;10154;52.474;10.768;2022-12-08T05:44:30;30.17;;;13.63;;
19985;SDS011;10154;52.474;10.768;2022-12-08T05:46:55;33.50;;;15.90;;
19985;SDS011;10154;52.474;10.768;2022-12-08T05:49:21;28.33;;;12.93;;
19985;SDS011;10154;52.474;10.768;2022-12-08T05:51:46;28.07;;;14.07;;
19985;SDS011;10154;52.474;10.768;2022-12-08T05:54:12;30.13;;;12.40;;
19985;SDS011;10154;52.474;10.768;2022-12-08T05:56:38;30.40;;;13.27;;
19985;SDS011;10154;52.474;10.768;2022-12-08T05:59:04;33.20;;;13.10;;
19985;SDS011;10154;52.474;10.768;2022-12-08T06:01:31;31.63;;;14.77;;
19985;SDS011;10154;52.474;10.768;2022-12-08T06:03:57;30.10;;;13.80;;
19985;SDS011;10154;52.474;10.768;2022-12-08T06:06:23;33.40;;;15.30;;
19985;SDS011;10154;52.474;10.768;2022-12-08T06:08:48;33.17;;;14.60;;
19985;SDS011;10154;52.474;10.768;2022-12-08T06:11:21;24.80;;;12.10;;
19985;SDS011;10154;52.474;10.768;2022-12-08T06:13:50;31.27;;;12.77;;
19985;SDS011;10154;52.474;10.768;2022-12-08T06:16:16;33.20;;;12.63;;
19985;SDS011;10154;52.474;10.768;2022-12-08T06:18:42;35.13;;;13.33;;
19985;SDS011;10154;52.474;10.768;2022-12-08T06:21:17;27.93;;;13.57;;
19985;SDS011;10154;52.474;10.768;2022-12-08T06:23:43;27.53;;;13.07;;
19985;SDS011;10154;52.474;10.768;2022-12-08T06:26:09;28.70;;;13.63;;
19985;SDS011;10154;52.474;10.768;2022-12-08T06:28:37;27.73;;;13.37;;
19985;SDS011;10154;52.474;10.768;2022-12-08T06:31:09;28.53;;;13.13;;
19985;SDS011;10154;52.474;10.768;2022-12-08T06:33:36;30.73;;;13.60;;
19985;SDS011;10154;52.474;10.768;2022-12-08T06:36:02;28.67;;;13.80;;
19985;SDS011;10154;52.474;10.768;2022-12-08T06:38:28;34.67;;;13.83;;
19985;SDS011;10154;52.474;10.768;2022-12-08T06:40:54;29.13;;;13.17;;
19985;SDS011;10154;52.474;10.768;2022-12-08T06:43:20;30.13;;;13.53;;
19985;SDS011;10154;52.474;10.768;2022-12-08T06:45:45;29.53;;;12.50;;
19985;SDS011;10154;52.474;10.768;2022-12-08T06:48:11;29.67;;;13.70;;
19985;SDS011;10154;52.474;10.768;2022-12-08T06:50:36;27.37;;;13.67;;
19985;SDS011;10154;52.474;10.768;2022-12-08T06:53:02;27.03;;;13.57;;
19985;SDS011;10154;52.474;10.768;2022-12-08T06:55:27;32.60;;;15.20;;
19985;SDS011;10154;52.474;10.768;2022-12-08T06:57:53;33.67;;;15.17;;
19985;SDS011;10154;52.474;10.768;2022-12-08T07:00:18;33.83;;;14.33;;
19985;SDS011;10154;52.474;10.768;2022-12-08T07:02:44;31.10;;;13.93;;
19985;SDS011;10154;52.474;10.768;2022-12-08T07:05:09;31.90;;;14.53;;
19985;SDS011;10154;52.474;10.768;2022-12-08T07:07:35;34.17;;;16.30;;
19985;SDS011;10154;52.474;10.768;2022-12-08T07:10:00;34.23;;;14.23;;
19985;SDS011;10154;52.474;10.768;2022-12-08T07:12:25;40.63;;;15.60;;
19985;SDS011;10154;52.474;10.768;2022-12-08T07:14:51;42.23;;;16.23;;
19985;SDS011;10154;52.474;10.768;2022-12-08T07:17:16;33.57;;;15.63;;
19985;SDS011;10154;52.474;10.768;2022-12-08T07:19:41;38.20;;;15.87;;
19985;SDS011;10154;52.474;10.768;2022-12-08T07:22:07;41.03;;;17.67;;
19985;SDS011;10154;52.474;10.768;2022-12-08T07:24:32;34.97;;;16.13;;
19985;SDS011;10154;52.474;10.768;2022-12-08T07:26:58;39.27;;;17.23;;
19985;SDS011;10154;52.474;10.768;2022-12-08T07:29:23;33.73;;;15.87;;
19985;SDS011;10154;52.474;10.768;2022-12-08T07:31:49;42.00;;;18.30;;
19985;SDS011;10154;52.474;10.768;2022-12-08T07:34:14;40.63;;;17.47;;
19985;SDS011;10154;52.474;10.768;2022-12-08T07:36:39;37.83;;;17.13;;
19985;SDS011;10154;52.474;10.768;2022-12-08T07:39:05;38.53;;;18.43;;
19985;SDS011;10154;52.474;10.768;2022-12-08T07:41:30;36.53;;;15.93;;
19985;SDS011;10154;52.474;10.768;2022-12-08T07:43:57;34.87;;;15.87;;
19985;SDS011;10154;52.474;10.768;2022-12-08T07:46:23;34.73;;;15.10;;
19985;SDS011;10154;52.474;10.768;2022-12-08T07:48:50;31.90;;;15.50;;
19985;SDS011;10154;52.474;10.768;2022-12-08T07:51:16;34.60;;;15.23;;
19985;SDS011;10154;52.474;10.768;2022-12-08T07:53:43;38.80;;;16.27;;
19985;SDS011;10154;52.474;10.768;2022-12-08T07:56:10;41.37;;;16.80;;
19985;SDS011;10154;52.474;10.768;2022-12-08T07:58:37;43.37;;;16.13;;
19985;SDS011;10154;52.474;10.768;2022-12-08T08:01:03;23.03;;;10.07;;
19985;SDS011;10154;52.474;10.768;2022-12-08T08:03:28;34.37;;;14.43;;
19985;SDS011;10154;52.474;10.768;2022-12-08T08:05:54;33.47;;;15.73;;
19985;SDS011;10154;52.474;10.768;2022-12-08T08:08:19;33.17;;;14.67;;
19985;SDS011;10154;52.474;10.768;2022-12-08T08:10:45;31.93;;;13.57;;
19985;SDS011;10154;52.474;10.768;2022-12-08T08:13:11;31.37;;;14.27;;
19985;SDS011;10154;52.474;10.768;2022-12-08T08:15:38;31.73;;;15.60;;
19985;SDS011;10154;52.474;10.768;2022-12-08T08:18:03;32.77;;;14.57;;
19985;SDS011;10154;52.474;10.768;2022-12-08T08:20:31;29.63;;;13.63;;
19985;SDS011;10154;52.474;10.768;2022-12-08T08:22:56;35.77;;;13.97;;
19985;SDS011;10154;52.474;10.768;2022-12-08T08:25:21;27.97;;;12.50;;
19985;SDS011;10154;52.474;10.768;2022-12-08T08:27:47;28.93;;;13.20;;
19985;SDS011;10154;52.474;10.768;2022-12-08T08:30:13;26.53;;;11.53;;
19985;SDS011;10154;52.474;10.768;2022-12-08T08:32:39;25.17;;;10.90;;
19985;SDS011;10154;52.474;10.768;2022-12-08T08:35:05;26.23;;;13.07;;
19985;SDS011;10154;52.474;10.768;2022-12-08T08:37:31;23.70;;;11.43;;
19985;SDS011;10154;52.474;10.768;2022-12-08T08:39:56;25.63;;;13.53;;
19985;SDS011;10154;52.474;10.768;2022-12-08T08:42:22;18.67;;;9.03;;
19985;SDS011;10154;52.474;10.768;2022-12-08T08:44:47;23.50;;;11.30;;
19985;SDS011;10154;52.474;10.768;2022-12-08T08:47:13;23.27;;;10.37;;
19985;SDS011;10154;52.474;10.768;2022-12-08T08:49:38;22.50;;;9.47;;
19985;SDS011;10154;52.474;10.768;2022-12-08T08:52:04;19.33;;;10.50;;
19985;SDS011;10154;52.474;10.768;2022-12-08T08:54:30;16.90;;;8.07;;
19985;SDS011;10154;52.474;10.768;2022-12-08T08:56:56;23.87;;;10.47;;
19985;SDS011;10154;52.474;10.768;2022-12-08T08:59:23;19.40;;;10.30;;
19985;SDS011;10154;52.474;10.768;2022-12-08T09:01:48;19.40;;;10.23;;
19985;SDS011;10154;52.474;10.768;2022-12-08T09:04:14;17.67;;;8.17;;
19985;SDS011;10154;52.474;10.768;2022-12-08T09:06:39;17.83;;;9.40;;
19985;SDS011;10154;52.474;10.768;2022-12-08T09:09:08;20.07;;;10.63;;
19985;SDS011;10154;52.474;10.768;2022-12-08T09:11:33;16.97;;;9.00;;
19985;SDS011;10154;52.474;10.768;2022-12-08T09:13:59;16.30;;;8.83;;
19985;SDS011;10154;52.474;10.768;2022-12-08T09:16:24;14.93;;;7.13;;
19985;SDS011;10154;52.474;10.768;2022-12-08T09:18:50;17.47;;;9.63;;
19985;SDS011;10154;52.474;10.768;2022-12-08T09:21:16;17.37;;;9.43;;
19985;SDS011;10154;52.474;10.768;2022-12-08T09:23:47;19.27;;;10.63;;
19985;SDS011;10154;52.474;10.768;2022-12-08T09:26:17;20.00;;;11.57;;
19985;SDS011;10154;52.474;10.768;2022-12-08T09:28:46;22.70;;;11.77;;
19985;SDS011;10154;52.474;10.768;2022-12-08T09:31:15;21.87;;;11.17;;
19985;SDS011;10154;52.474;10.768;2022-12-08T09:33:41;21.03;;;10.13;;
19985;SDS011;10154;52.474;10.768;2022-12-08T09:36:07;19.73;;;10.47;;
19985;SDS011;10154;52.474;10.768;2022-12-08T09:38:32;21.27;;;11.77;;
19985;SDS011;10154;52.474;10.768;2022-12-08T09:40:58;24.30;;;13.13;;
19985;SDS011;10154;52.474;10.768;2022-12-08T09:46:20;27.83;;;14.17;;
19985;SDS011;10154;52.474;10.768;2022-12-08T09:48:48;26.17;;;13.17;;
19985;SDS011;10154;52.474;10.768;2022-12-08T09:51:19;23.40;;;13.20;;
19985;SDS011;10154;52.474;10.768;2022-12-08T09:53:51;28.17;;;13.20;;
19985;SDS011;10154;52.474;10.768;2022-12-08T09:56:23;26.37;;;14.03;;
19985;SDS011;10154;52.474;10.768;2022-12-08T10:01:44;28.10;;;14.30;;
19985;SDS011;10154;52.474;10.768;2022-12-08T10:12:31;30.67;;;15.23;;
19985;SDS011;10154;52.474;10.768;2022-12-08T10:17:48;31.63;;;15.10;;
19985;SDS011;10154;52.474;10.768;2022-12-08T10:20:16;30.37;;;15.67;;
19985;SDS011;10154;52.474;10.768;2022-12-08T10:22:48;25.43;;;13.80;;
19985;SDS011;10154;52.474;10.768;2022-12-08T10:25:21;29.90;;;15.93;;
19985;SDS011;10154;52.474;10.768;2022-12-08T10:27:52;31.13;;;14.63;;
19985;SDS011;10154;52.474;10.768;2022-12-08T10:30:18;33.90;;;16.13;;
19985;SDS011;10154;52.474;10.768;2022-12-08T10:32:45;29.87;;;15.87;;
19985;SDS011;10154;52.474;10.768;2022-12-08T10:35:13;31.40;;;16.30;;
19985;SDS011;10154;52.474;10.768;2022-12-08T10:37:59;32.57;;;16.90;;
19985;SDS011;10154;52.474;10.768;2022-12-08T10:40:28;35.10;;;17.47;;
19985;SDS011;10154;52.474;10.768;2022-12-08T10:42:55;29.97;;;15.03;;
19985;SDS011;10154;52.474;10.768;2022-12-08T10:45:28;30.13;;;14.53;;
19985;SDS011;10154;52.474;10.768;2022-12-08T10:48:12;26.27;;;13.97;;
19985;SDS011;10154;52.474;10.768;2022-12-08T10:50:52;25.07;;;13.10;;
19985;SDS011;10154;52.474;10.768;2022-12-08T10:53:25;26.17;;;13.27;;
19985;SDS011;10154;52.474;10.768;2022-12-08T10:56:05;24.37;;;13.23;;
19985;SDS011;10154;52.474;10.768;2022-12-08T10:58:36;23.67;;;13.60;;
19985;SDS011;10154;52.474;10.768;2022-12-08T11:01:17;26.47;;;14.20;;
19985;SDS011;10154;52.474;10.768;2022-12-08T11:03:57;25.50;;;12.83;;
19985;SDS011;10154;52.474;10.768;2022-12-08T11:08:57;22.13;;;12.00;;
19985;SDS011;10154;52.474;10.768;2022-12-08T11:11:43;23.70;;;13.53;;
19985;SDS011;10154;52.474;10.768;2022-12-08T11:14:27;22.20;;;11.70;;
19985;SDS011;10154;52.474;10.768;2022-12-08T11:17:09;22.07;;;11.90;;
19985;SDS011;10154;52.474;10.768;2022-12-08T11:19:38;24.60;;;13.20;;
19985;SDS011;10154;52.474;10.768;2022-12-08T11:27:56;21.80;;;11.60;;
19985;SDS011;10154;52.474;10.768;2022-12-08T11:30:29;22.13;;;11.30;;
19985;SDS011;10154;52.474;10.768;2022-12-08T11:33:27;21.83;;;10.80;;
19985;SDS011;10154;52.474;10.768;2022-12-08T11:36:02;18.83;;;9.93;;
19985;SDS011;10154;52.474;10.768;2022-12-08T11:38:45;21.43;;;10.33;;
19985;SDS011;10154;52.474;10.768;2022-12-08T11:41:22;17.03;;;9.87;;
19985;SDS011;10154;52.474;10.768;2022-12-08T11:47:14;15.13;;;8.53;;
19985;SDS011;10154;52.474;10.768;2022-12-08T11:53:01;13.97;;;8.30;;
19985;SDS011;10154;52.474;10.768;2022-12-08T11:55:44;15.30;;;8.17;;
19985;SDS011;10154;52.474;10.768;2022-12-08T11:58:15;19.10;;;9.73;;
19985;SDS011;10154;52.474;10.768;2022-12-08T12:00:45;16.17;;;9.60;;
19985;SDS011;10154;52.474;10.768;2022-12-08T12:03:19;16.90;;;8.70;;
19985;SDS011;10154;52.474;10.768;2022-12-08T12:06:19;16.73;;;9.37;;
19985;SDS011;10154;52.474;10.768;2022-12-08T12:15:01;14.23;;;7.53;;
19985;SDS011;10154;52.474;10.768;2022-12-08T12:17:51;16.40;;;8.73;;
19985;SDS011;10154;52.474;10.768;2022-12-08T12:25:59;15.40;;;8.40;;
19985;SDS011;10154;52.474;10.768;2022-12-08T12:28:27;13.73;;;8.40;;
19985;SDS011;10154;52.474;10.768;2022-12-08T12:31:11;13.63;;;8.73;;
19985;SDS011;10154;52.474;10.768;2022-12-08T12:33:38;15.27;;;9.17;;
19985;SDS011;10154;52.474;10.768;2022-12-08T12:36:05;16.73;;;9.37;;
19985;SDS011;10154;52.474;10.768;2022-12-08T12:38:51;17.47;;;8.50;;
19985;SDS011;10154;52.474;10.768;2022-12-08T12:41:41;15.77;;;8.73;;
19985;SDS011;10154;52.474;10.768;2022-12-08T12:52:02;13.13;;;7.30;;
19985;SDS011;10154;52.474;10.768;2022-12-08T12:54:29;15.53;;;7.30;;
19985;SDS011;10154;52.474;10.768;2022-12-08T12:56:55;13.47;;;7.67;;
19985;SDS011;10154;52.474;10.768;2022-12-08T13:02:17;18.50;;;9.10;;
19985;SDS011;10154;52.474;10.768;2022-12-08T13:04:43;22.97;;;10.60;;
19985;SDS011;10154;52.474;10.768;2022-12-08T13:07:21;24.90;;;11.20;;
19985;SDS011;10154;52.474;10.768;2022-12-08T13:09:57;12.10;;;7.27;;
19985;SDS011;10154;52.474;10.768;2022-12-08T13:12:31;14.00;;;7.60;;
19985;SDS011;10154;52.474;10.768;2022-12-08T13:14:59;13.70;;;6.63;;
19985;SDS011;10154;52.474;10.768;2022-12-08T13:17:29;13.13;;;6.20;;
19985;SDS011;10154;52.474;10.768;2022-12-08T13:19:57;11.67;;;6.40;;
19985;SDS011;10154;52.474;10.768;2022-12-08T13:28:18;11.33;;;5.90;;
19985;SDS011;10154;52.474;10.768;2022-12-08T13:30:55;9.53;;;5.63;;
19985;SDS011;10154;52.474;10.768;2022-12-08T13:33:36;15.00;;;6.40;;
19985;SDS011;10154;52.474;10.768;2022-12-08T13:38:35;11.17;;;6.80;;
19985;SDS011;10154;52.474;10.768;2022-12-08T13:41:04;10.50;;;5.97;;
19985;SDS011;10154;52.474;10.768;2022-12-08T13:43:37;11.73;;;6.00;;
19985;SDS011;10154;52.474;10.768;2022-12-08T13:46:06;10.00;;;5.57;;
19985;SDS011;10154;52.474;10.768;2022-12-08T13:48:42;8.67;;;5.27;;
19985;SDS011;10154;52.474;10.768;2022-12-08T13:51:14;10.80;;;6.20;;
19985;SDS011;10154;52.474;10.768;2022-12-08T13:53:45;12.17;;;6.20;;
19985;SDS011;10154;52.474;10.768;2022-12-08T13:56:19;13.37;;;7.03;;
19985;SDS011;10154;52.474;10.768;2022-12-08T13:58:46;12.90;;;6.37;;
19985;SDS011;10154;52.474;10.768;2022-12-08T14:01:14;12.10;;;6.20;;
19985;SDS011;10154;52.474;10.768;2022-12-08T14:03:49;11.57;;;6.23;;
19985;SDS011;10154;52.474;10.768;2022-12-08T14:06:35;12.53;;;6.13;;
19985;SDS011;10154;52.474;10.768;2022-12-08T14:09:03;11.20;;;6.40;;
19985;SDS011;10154;52.474;10.768;2022-12-08T14:11:35;12.07;;;6.40;;
19985;SDS011;10154;52.474;10.768;2022-12-08T14:16:54;11.00;;;6.07;;
19985;SDS011;10154;52.474;10.768;2022-12-08T14:19:22;10.57;;;5.57;;
19985;SDS011;10154;52.474;10.768;2022-12-08T14:21:54;12.07;;;6.30;;
19985;SDS011;10154;52.474;10.768;2022-12-08T14:24:25;18.80;;;7.20;;
19985;SDS011;10154;52.474;10.768;2022-12-08T14:26:53;13.27;;;7.17;;
19985;SDS011;10154;52.474;10.768;2022-12-08T14:29:36;14.03;;;6.90;;
19985;SDS011;10154;52.474;10.768;2022-12-08T14:32:29;18.80;;;8.47;;
19985;SDS011;10154;52.474;10.768;2022-12-08T14:37:45;14.03;;;7.13;;
19985;SDS011;10154;52.474;10.768;2022-12-08T14:40:18;17.73;;;9.03;;
19985;SDS011;10154;52.474;10.768;2022-12-08T14:45:30;25.07;;;11.47;;
19985;SDS011;10154;52.474;10.768;2022-12-08T14:48:19;24.20;;;12.07;;
19985;SDS011;10154;52.474;10.768;2022-12-08T14:56:23;17.23;;;8.63;;
19985;SDS011;10154;52.474;10.768;2022-12-08T14:59:06;17.67;;;9.00;;
19985;SDS011;10154;52.474;10.768;2022-12-08T15:01:37;21.47;;;10.57;;
19985;SDS011;10154;52.474;10.768;2022-12-08T15:06:51;21.20;;;10.63;;
19985;SDS011;10154;52.474;10.768;2022-12-08T15:12:41;20.80;;;9.87;;
19985;SDS011;10154;52.474;10.768;2022-12-08T15:14:56;21.63;;;8.90;;
19985;SDS011;10154;52.474;10.768;2022-12-08T15:17:42;20.30;;;9.30;;
19985;SDS011;10154;52.474;10.768;2022-12-08T15:23:24;25.63;;;12.80;;
19985;SDS011;10154;52.474;10.768;2022-12-08T15:25:57;21.97;;;10.73;;
19985;SDS011;10154;52.474;10.768;2022-12-08T15:28:24;23.63;;;11.43;;
19985;SDS011;10154;52.474;10.768;2022-12-08T15:30:53;22.23;;;11.13;;
19985;SDS011;10154;52.474;10.768;2022-12-08T15:33:19;24.40;;;12.07;;
19985;SDS011;10154;52.474;10.768;2022-12-08T15:35:45;21.47;;;10.73;;
19985;SDS011;10154;52.474;10.768;2022-12-08T15:38:32;30.37;;;13.87;;
19985;SDS011;10154;52.474;10.768;2022-12-08T15:41:00;25.57;;;12.90;;
19985;SDS011;10154;52.474;10.768;2022-12-08T15:43:26;27.90;;;14.13;;
19985;SDS011;10154;52.474;10.768;2022-12-08T15:45:52;29.10;;;14.30;;
19985;SDS011;10154;52.474;10.768;2022-12-08T15:48:23;36.50;;;16.03;;
19985;SDS011;10154;52.474;10.768;2022-12-08T15:50:51;49.00;;;21.10;;
19985;SDS011;10154;52.474;10.768;2022-12-08T15:53:17;53.67;;;21.67;;
19985;SDS011;10154;52.474;10.768;2022-12-08T15:55:43;35.53;;;16.77;;
19985;SDS011;10154;52.474;10.768;2022-12-08T15:58:14;34.20;;;15.30;;
19985;SDS011;10154;52.474;10.768;2022-12-08T16:00:44;28.07;;;12.70;;
19985;SDS011;10154;52.474;10.768;2022-12-08T16:03:30;26.63;;;11.97;;
19985;SDS011;10154;52.474;10.768;2022-12-08T16:05:56;23.77;;;11.20;;
19985;SDS011;10154;52.474;10.768;2022-12-08T16:08:24;21.27;;;11.40;;
19985;SDS011;10154;52.474;10.768;2022-12-08T16:10:50;24.57;;;12.13;;
19985;SDS011;10154;52.474;10.768;2022-12-08T16:13:16;29.50;;;14.10;;